Battle Harbour, Canada
Current Conditions -  °F | °C
As of 7:00 AM on Sunday 23 Nov 2014 (Local Time) from CYMH Reporting Station
Few Clouds Few Clouds  
Wind Chill: -3°   Ceiling: Unl
Heat Index: 14°   Visibility: 9mi
Dew Point:   Wind: 17mph
Humidity: 67%   Direction: 250°WSW
Pressure: 29.41"   Gusts: 25mph
Location:  52.27°N, 55.58°W
Report Text: CYMH 231100Z AUTO 25015G22KT 9SM FEW100 M10/M15 A2941 RMK SLP960
Loading
Personal Weather Stations






























Interactive Weather Map New forecast layout! Learn more

10-Day Weather Forecast

Advertisements
Track Severe Weather on mobile